createdAt,value
2023-03-21T00:00:48.481Z,14.58
2023-03-21T00:03:23.172Z,14.75
2023-03-21T00:05:54.134Z,14.69
2023-03-21T00:08:22.911Z,14.92
2023-03-21T00:11:01.360Z,14.60
2023-03-21T00:13:32.775Z,14.51
2023-03-21T00:16:17.983Z,14.42
2023-03-21T00:18:57.529Z,14.44
2023-03-21T00:21:44.290Z,14.27
2023-03-21T00:24:16.709Z,14.64
2023-03-21T00:26:45.173Z,14.61
2023-03-21T00:29:12.752Z,14.56
2023-03-21T00:31:40.760Z,14.51
2023-03-21T00:34:08.359Z,14.35
2023-03-21T00:36:36.497Z,14.38
2023-03-21T00:39:07.774Z,14.47
2023-03-21T00:41:42.433Z,14.63
2023-03-21T00:44:14.033Z,14.52
2023-03-21T00:46:49.386Z,14.29
2023-03-21T00:49:25.081Z,14.18
2023-03-21T00:51:55.259Z,14.21
2023-03-21T00:54:26.224Z,13.99
2023-03-21T00:56:54.180Z,14.27
2023-03-21T00:59:21.807Z,14.25
2023-03-21T01:01:49.874Z,14.37
2023-03-21T01:04:18.418Z,14.45
2023-03-21T01:06:46.236Z,14.28
2023-03-21T01:09:15.757Z,14.01
2023-03-21T01:11:44.031Z,14.00
2023-03-21T01:14:28.558Z,13.96
2023-03-21T01:16:56.437Z,14.11
2023-03-21T01:19:40.719Z,13.90
2023-03-21T01:22:14.825Z,13.95
2023-03-21T01:24:52.400Z,14.10
2023-03-21T01:27:24.007Z,14.34
2023-03-21T01:29:51.734Z,13.94
2023-03-21T01:32:19.656Z,14.06
2023-03-21T01:34:47.295Z,13.88
2023-03-21T01:37:18.268Z,14.08
2023-03-21T01:39:49.276Z,14.03
2023-03-21T01:42:17.307Z,13.81
2023-03-21T01:45:01.218Z,13.87
2023-03-21T01:47:44.372Z,13.88
2023-03-21T01:50:25.799Z,13.94
2023-03-21T01:53:02.924Z,14.06
2023-03-21T01:55:33.619Z,13.82
2023-03-21T01:58:08.989Z,13.94
2023-03-21T02:00:50.853Z,13.64
2023-03-21T02:03:36.157Z,13.58
2023-03-21T02:06:44.778Z,13.64
2023-03-21T02:09:28.415Z,13.65
2023-03-21T02:11:56.542Z,13.68
2023-03-21T02:14:29.718Z,13.64
2023-03-21T02:17:05.771Z,13.56
2023-03-21T02:20:01.560Z,13.48
2023-03-21T02:22:48.826Z,13.57
2023-03-21T02:25:41.616Z,13.57
2023-03-21T02:28:35.737Z,13.47
2023-03-21T02:31:15.992Z,13.36
2023-03-21T02:33:58.877Z,13.05
2023-03-21T02:36:45.472Z,13.28
2023-03-21T02:39:16.095Z,13.21
2023-03-21T02:42:04.268Z,13.27
2023-03-21T02:45:03.310Z,13.00
2023-03-21T02:47:47.895Z,13.22
2023-03-21T02:50:18.803Z,13.13
2023-03-21T02:52:48.418Z,12.97
2023-03-21T02:55:19.959Z,12.79
2023-03-21T02:57:56.562Z,12.65
2023-03-21T03:00:32.921Z,12.66
2023-03-21T03:03:10.043Z,12.66
2023-03-21T03:05:49.330Z,12.92
2023-03-21T03:08:32.425Z,12.93
2023-03-21T03:11:07.423Z,13.05
2023-03-21T03:13:35.181Z,13.03
2023-03-21T03:16:11.599Z,13.05
2023-03-21T03:18:53.976Z,12.92
2023-03-21T03:21:27.660Z,12.97
2023-03-21T03:24:01.116Z,12.87
2023-03-21T03:26:28.618Z,12.85
2023-03-21T03:29:02.072Z,12.91
2023-03-21T03:31:33.250Z,13.04
2023-03-21T03:34:07.276Z,13.23
2023-03-21T03:36:41.596Z,12.89
2023-03-21T03:39:14.737Z,12.73
2023-03-21T03:42:18.432Z,12.78
2023-03-21T03:44:59.082Z,12.60
2023-03-21T03:47:56.082Z,12.53
2023-03-21T03:50:31.085Z,12.65
2023-03-21T03:53:17.747Z,12.65
2023-03-21T03:55:47.986Z,12.40
2023-03-21T03:58:23.998Z,12.38
2023-03-21T04:00:56.095Z,12.49
2023-03-21T04:03:24.104Z,12.25
2023-03-21T04:05:54.243Z,12.23
2023-03-21T04:08:23.443Z,11.99
2023-03-21T04:10:55.219Z,12.13
2023-03-21T04:13:23.623Z,12.12
2023-03-21T04:16:13.348Z,12.24
2023-03-21T04:18:43.034Z,12.41
2023-03-21T04:21:13.054Z,12.30
2023-03-21T04:23:41.684Z,12.20
2023-03-21T04:26:10.172Z,12.43
2023-03-21T04:28:43.723Z,12.42
2023-03-21T04:31:27.495Z,12.47
2023-03-21T04:34:10.045Z,12.65
2023-03-21T04:36:45.502Z,12.55
2023-03-21T04:39:13.873Z,12.45
2023-03-21T04:41:45.022Z,12.29
2023-03-21T04:44:13.962Z,12.32
2023-03-21T04:46:42.230Z,12.17
2023-03-21T04:49:11.380Z,12.17
2023-03-21T04:51:39.476Z,12.27
2023-03-21T04:56:38.520Z,12.18
2023-03-21T04:59:07.781Z,12.10
2023-03-21T05:01:35.689Z,12.03
2023-03-21T05:04:05.593Z,11.99
2023-03-21T05:06:36.598Z,12.00
2023-03-21T05:09:07.963Z,12.00
2023-03-21T05:11:38.924Z,12.06
2023-03-21T05:14:07.898Z,12.06
2023-03-21T05:16:36.610Z,12.12
2023-03-21T05:19:04.537Z,11.96
2023-03-21T05:21:42.136Z,12.00
2023-03-21T05:24:28.773Z,12.28
2023-03-21T05:27:02.495Z,12.12
2023-03-21T05:29:33.451Z,12.49
2023-03-21T05:32:04.614Z,12.43
2023-03-21T05:34:32.372Z,12.68
2023-03-21T05:37:01.649Z,12.39
2023-03-21T05:39:49.628Z,12.40
2023-03-21T05:42:24.972Z,12.46
2023-03-21T05:44:52.604Z,12.59
2023-03-21T05:47:26.026Z,12.65
2023-03-21T05:49:55.394Z,12.61
2023-03-21T05:52:24.510Z,12.53
2023-03-21T05:54:52.545Z,12.63
2023-03-21T05:57:24.326Z,12.59
2023-03-21T06:00:01.537Z,12.93
2023-03-21T06:02:31.640Z,12.71
2023-03-21T06:05:03.706Z,12.83
2023-03-21T06:07:31.601Z,12.71
2023-03-21T06:10:00.309Z,12.60
2023-03-21T06:12:28.450Z,12.29
2023-03-21T06:15:02.089Z,12.24
2023-03-21T06:17:33.319Z,12.25
2023-03-21T06:20:08.925Z,12.35
2023-03-21T06:22:47.543Z,12.44
2023-03-21T06:25:15.090Z,12.23
2023-03-21T06:27:42.973Z,12.60
2023-03-21T06:30:12.103Z,12.10
2023-03-21T06:32:48.269Z,12.54
2023-03-21T06:35:18.476Z,12.88
2023-03-21T06:37:49.415Z,12.71
2023-03-21T06:40:18.089Z,12.75
2023-03-21T06:42:46.462Z,12.98
2023-03-21T06:45:14.976Z,13.21
2023-03-21T06:47:44.298Z,13.30
2023-03-21T06:50:24.165Z,13.49
2023-03-21T06:52:51.747Z,13.86
2023-03-21T06:55:26.277Z,14.39
2023-03-21T06:57:55.326Z,14.45
2023-03-21T07:00:24.096Z,14.53
2023-03-21T07:02:52.312Z,14.57
2023-03-21T07:05:21.526Z,14.57
2023-03-21T07:07:49.186Z,14.66
2023-03-21T07:10:17.436Z,14.92
2023-03-21T07:12:50.839Z,14.80
2023-03-21T07:15:25.218Z,14.42
2023-03-21T07:17:53.077Z,14.66
2023-03-21T07:20:21.772Z,14.99
2023-03-21T07:22:49.751Z,15.07
2023-03-21T07:25:17.777Z,14.97
2023-03-21T07:27:46.742Z,15.24
2023-03-21T07:30:14.807Z,15.63
2023-03-21T07:32:42.704Z,15.56
2023-03-21T07:35:12.270Z,15.59
2023-03-21T07:37:40.638Z,15.35
2023-03-21T07:40:10.848Z,15.58
2023-03-21T07:42:40.230Z,15.74
2023-03-21T07:45:09.568Z,16.28
2023-03-21T07:47:37.108Z,16.57
2023-03-21T07:50:05.313Z,16.24
2023-03-21T07:52:33.296Z,15.84
2023-03-21T07:55:01.135Z,16.10
2023-03-21T07:57:28.697Z,16.13
2023-03-21T07:59:56.623Z,16.63
2023-03-21T08:02:24.578Z,16.10
2023-03-21T08:04:52.795Z,16.56
2023-03-21T08:07:20.390Z,16.62
2023-03-21T08:09:48.205Z,16.37
2023-03-21T08:12:17.015Z,16.76
2023-03-21T08:14:44.970Z,17.23
2023-03-21T08:17:12.717Z,17.11
2023-03-21T08:19:40.618Z,17.24
2023-03-21T08:22:08.138Z,17.59
2023-03-21T08:24:36.293Z,17.89
2023-03-21T08:27:03.969Z,17.60
2023-03-21T08:29:31.529Z,17.38
2023-03-21T08:31:59.398Z,17.62
2023-03-21T08:34:26.940Z,17.47
2023-03-21T08:36:54.755Z,17.40
2023-03-21T08:39:24.276Z,17.91
2023-03-21T08:41:52.577Z,18.93
2023-03-21T08:44:20.321Z,17.96
2023-03-21T08:46:48.399Z,17.97
2023-03-21T08:49:16.428Z,18.24
2023-03-21T08:51:45.866Z,18.41
2023-03-21T08:54:18.645Z,18.09
2023-03-21T08:56:46.622Z,18.53
2023-03-21T08:59:14.222Z,19.39
2023-03-21T09:01:42.328Z,20.15
2023-03-21T09:04:11.307Z,19.52
2023-03-21T09:06:46.063Z,19.65
2023-03-21T09:09:13.928Z,20.37
2023-03-21T09:11:42.060Z,19.99
2023-03-21T09:14:09.730Z,20.74
2023-03-21T09:16:37.653Z,20.62
2023-03-21T09:19:08.774Z,20.30
2023-03-21T09:21:36.931Z,20.67
2023-03-21T09:24:05.805Z,21.23
2023-03-21T09:26:33.733Z,20.96
2023-03-21T09:29:01.263Z,20.82
2023-03-21T09:31:29.398Z,20.31
2023-03-21T09:33:57.383Z,20.16
2023-03-21T09:36:27.453Z,20.10
2023-03-21T09:38:57.275Z,20.83
2023-03-21T09:41:32.298Z,20.59
2023-03-21T09:44:18.547Z,21.93
2023-03-21T09:46:58.543Z,22.13
2023-03-21T09:49:31.518Z,21.39
2023-03-21T09:52:03.794Z,21.09
2023-03-21T09:54:44.038Z,21.05
2023-03-21T09:57:19.877Z,21.64
2023-03-21T09:59:48.577Z,21.93
2023-03-21T10:02:32.530Z,22.63
2023-03-21T10:05:01.008Z,23.35
2023-03-21T10:07:32.070Z,23.49
2023-03-21T10:10:03.804Z,22.06
2023-03-21T10:12:31.970Z,21.82
2023-03-21T10:15:01.216Z,22.25
2023-03-21T10:17:33.868Z,22.87
2023-03-21T10:20:21.543Z,23.74
2023-03-21T10:22:54.442Z,23.17
2023-03-21T10:25:28.399Z,22.52
2023-03-21T10:27:56.353Z,22.16
2023-03-21T10:30:29.969Z,22.55
2023-03-21T10:32:59.784Z,24.04
2023-03-21T10:35:27.493Z,23.65
2023-03-21T10:37:55.411Z,23.15
2023-03-21T10:40:23.027Z,22.24
2023-03-21T10:42:50.942Z,23.17
2023-03-21T10:45:20.213Z,24.24
2023-03-21T10:47:49.655Z,23.76
2023-03-21T10:50:25.339Z,22.86
2023-03-21T10:53:00.888Z,23.03
2023-03-21T10:55:31.356Z,23.36
2023-03-21T10:58:11.154Z,23.19
2023-03-21T11:00:41.652Z,23.28
2023-03-21T11:03:23.742Z,23.57
2023-03-21T11:05:57.791Z,23.30
2023-03-21T11:08:27.567Z,23.24
2023-03-21T11:11:03.734Z,24.16
2023-03-21T11:13:39.355Z,24.53
2023-03-21T11:16:09.066Z,25.62
2023-03-21T11:18:42.774Z,24.97
2023-03-21T11:21:12.156Z,25.15
2023-03-21T11:23:45.686Z,25.18
2023-03-21T11:26:20.069Z,25.36
2023-03-21T11:28:48.011Z,24.97
2023-03-21T11:31:17.541Z,24.55
2023-03-21T11:33:52.223Z,25.53
2023-03-21T11:36:19.904Z,25.88
2023-03-21T11:38:53.284Z,26.07
2023-03-21T11:41:25.882Z,25.57
2023-03-21T11:43:54.022Z,26.65
2023-03-21T11:46:26.441Z,25.32
2023-03-21T11:48:55.675Z,26.32
2023-03-21T11:51:38.710Z,25.91
2023-03-21T11:54:06.864Z,25.88
2023-03-21T11:56:34.400Z,26.52
2023-03-21T11:59:20.783Z,26.89
2023-03-21T12:02:06.713Z,25.93
2023-03-21T12:04:40.658Z,26.64
2023-03-21T12:07:11.105Z,26.38
2023-03-21T12:09:55.452Z,26.48
2023-03-21T12:12:38.045Z,25.75
2023-03-21T12:15:09.783Z,25.23
2023-03-21T12:17:43.184Z,25.73
2023-03-21T12:20:23.666Z,26.25
2023-03-21T12:22:54.158Z,27.68
2023-03-21T12:25:25.782Z,27.11
2023-03-21T12:27:56.453Z,25.55
2023-03-21T12:30:43.240Z,25.59
2023-03-21T12:33:10.853Z,24.61
2023-03-21T12:35:47.640Z,25.66
2023-03-21T12:38:18.182Z,25.15
2023-03-21T12:40:55.888Z,26.06
2023-03-21T12:43:36.868Z,26.40
2023-03-21T12:46:10.468Z,25.99
2023-03-21T12:48:52.695Z,25.06
2023-03-21T12:51:23.000Z,25.14
2023-03-21T12:53:59.488Z,24.93
2023-03-21T12:56:41.879Z,23.96
2023-03-21T12:59:12.196Z,26.30
2023-03-21T13:01:42.152Z,24.96
2023-03-21T13:04:09.877Z,25.74
2023-03-21T13:06:39.181Z,25.39
2023-03-21T13:09:37.344Z,25.30
2023-03-21T13:12:15.154Z,25.18
2023-03-21T13:15:07.842Z,25.70
2023-03-21T13:17:42.747Z,25.73
2023-03-21T13:20:22.806Z,25.94
2023-03-21T13:22:50.764Z,26.77
2023-03-21T13:25:20.677Z,25.57
2023-03-21T13:27:55.927Z,25.67
2023-03-21T13:30:28.296Z,25.38
2023-03-21T13:33:12.986Z,25.14
2023-03-21T13:35:43.121Z,24.89
2023-03-21T13:38:25.870Z,24.77
2023-03-21T13:40:59.414Z,24.36
2023-03-21T13:43:39.611Z,24.78
2023-03-21T13:46:09.101Z,24.82
2023-03-21T13:49:00.455Z,25.71
2023-03-21T13:51:28.101Z,25.55
2023-03-21T13:54:04.896Z,25.91
2023-03-21T13:56:47.422Z,25.43
2023-03-21T13:59:33.675Z,25.91
2023-03-21T14:02:01.360Z,24.78
2023-03-21T14:04:42.045Z,25.09
2023-03-21T14:07:30.208Z,24.71
2023-03-21T14:10:06.457Z,24.57
2023-03-21T14:12:44.232Z,25.92
2023-03-21T14:15:32.526Z,24.88
2023-03-21T14:18:15.860Z,25.62
2023-03-21T14:20:58.578Z,25.44
2023-03-21T14:23:26.166Z,24.88
2023-03-21T14:25:54.206Z,24.21
2023-03-21T14:28:25.126Z,25.77
2023-03-21T14:30:58.976Z,25.05
2023-03-21T14:33:32.425Z,24.53
2023-03-21T14:36:02.282Z,25.91
2023-03-21T14:38:33.836Z,25.65
2023-03-21T14:41:01.882Z,25.40
2023-03-21T14:43:31.144Z,25.26
2023-03-21T14:45:59.233Z,25.35
2023-03-21T14:48:33.951Z,24.81
2023-03-21T14:51:04.176Z,24.87
2023-03-21T14:53:33.551Z,25.60
2023-03-21T14:56:17.863Z,24.72
2023-03-21T14:58:46.438Z,25.71
2023-03-21T15:01:35.222Z,24.87
2023-03-21T15:04:05.688Z,26.00
2023-03-21T15:06:35.852Z,25.43
2023-03-21T15:09:04.951Z,25.23
2023-03-21T15:11:34.490Z,25.09
2023-03-21T15:14:04.341Z,24.66
2023-03-21T15:16:32.618Z,25.63
2023-03-21T15:19:02.257Z,24.14
2023-03-21T15:21:32.500Z,24.25
2023-03-21T15:24:23.156Z,24.53
2023-03-21T15:26:51.886Z,24.98
2023-03-21T15:29:19.478Z,24.58
2023-03-21T15:31:48.250Z,24.20
2023-03-21T15:34:21.900Z,24.33
2023-03-21T15:36:55.788Z,23.62
2023-03-21T15:39:24.036Z,23.49
2023-03-21T15:42:17.892Z,23.19
2023-03-21T15:44:49.876Z,23.12
2023-03-21T15:47:35.664Z,23.39
2023-03-21T15:50:08.053Z,23.27
2023-03-21T15:52:36.838Z,23.34
2023-03-21T15:55:17.467Z,23.27
2023-03-21T15:57:47.691Z,22.68
2023-03-21T16:00:20.086Z,22.83
2023-03-21T16:02:48.724Z,22.57
2023-03-21T16:05:24.243Z,22.79
2023-03-21T16:07:52.240Z,22.47
2023-03-21T16:10:27.061Z,23.02
2023-03-21T16:12:55.013Z,22.75
2023-03-21T16:15:24.036Z,22.71
2023-03-21T16:17:54.693Z,22.69
2023-03-21T16:20:24.751Z,23.11
2023-03-21T16:22:52.647Z,23.11
2023-03-21T16:25:20.815Z,22.75
2023-03-21T16:27:48.884Z,22.74
2023-03-21T16:30:17.890Z,22.51
2023-03-21T16:32:46.001Z,22.88
2023-03-21T16:35:13.650Z,23.07
2023-03-21T16:37:41.915Z,22.63
2023-03-21T16:40:24.197Z,23.27
2023-03-21T16:42:52.402Z,22.69
2023-03-21T16:45:20.024Z,23.08
2023-03-21T16:47:48.224Z,22.91
2023-03-21T16:50:21.951Z,22.83
2023-03-21T16:52:50.053Z,22.34
2023-03-21T16:55:17.594Z,22.33
2023-03-21T16:57:46.463Z,22.31
2023-03-21T17:00:17.604Z,21.80
2023-03-21T17:02:45.623Z,21.98
2023-03-21T17:05:13.902Z,22.07
2023-03-21T17:07:44.255Z,21.88
2023-03-21T17:10:22.811Z,22.17
2023-03-21T17:12:50.983Z,21.94
2023-03-21T17:15:19.326Z,22.20
2023-03-21T17:17:50.298Z,21.98
2023-03-21T17:20:18.174Z,21.61
2023-03-21T17:22:46.144Z,22.07
2023-03-21T17:25:14.183Z,21.99
2023-03-21T17:27:42.122Z,21.55
2023-03-21T17:30:19.722Z,21.84
2023-03-21T17:32:48.082Z,21.85
2023-03-21T17:35:16.165Z,21.86
2023-03-21T17:37:50.262Z,21.55
2023-03-21T17:40:22.413Z,21.36
2023-03-21T17:42:51.079Z,21.33
2023-03-21T17:45:19.712Z,21.65
2023-03-21T17:47:48.606Z,21.62
2023-03-21T17:50:21.502Z,21.29
2023-03-21T17:52:50.877Z,21.23
2023-03-21T17:55:19.821Z,21.02
2023-03-21T17:57:48.691Z,21.07
2023-03-21T18:00:24.001Z,21.05
2023-03-21T18:02:52.381Z,20.79
2023-03-21T18:05:21.844Z,20.88
2023-03-21T18:10:37.813Z,20.78
2023-03-21T18:13:06.351Z,20.94
2023-03-21T18:15:34.826Z,20.77
2023-03-21T18:18:06.012Z,20.74
2023-03-21T18:23:22.148Z,20.30
2023-03-21T18:25:49.760Z,20.65
2023-03-21T18:28:21.054Z,20.36
2023-03-21T18:31:07.718Z,20.52
2023-03-21T18:33:40.517Z,20.60
2023-03-21T18:36:09.451Z,20.45
2023-03-21T18:38:37.732Z,20.40
2023-03-21T18:41:06.383Z,20.23
2023-03-21T18:44:01.304Z,20.03
2023-03-21T18:46:23.068Z,20.25
2023-03-21T18:48:51.933Z,20.08
2023-03-21T18:51:19.819Z,19.97
2023-03-21T18:53:47.965Z,19.97
2023-03-21T18:56:57.671Z,20.32
2023-03-21T18:59:07.615Z,20.31
2023-03-21T19:01:36.131Z,20.05
2023-03-21T19:04:20.734Z,20.07
2023-03-21T19:06:50.738Z,20.25
2023-03-21T19:09:19.556Z,20.17
2023-03-21T19:11:47.360Z,20.14
2023-03-21T19:14:17.171Z,20.18
2023-03-21T19:17:26.460Z,20.13
2023-03-21T19:19:34.075Z,20.30
2023-03-21T19:22:01.859Z,20.23
2023-03-21T19:24:29.991Z,20.24
2023-03-21T19:26:57.857Z,20.14
2023-03-21T19:29:26.043Z,20.05
2023-03-21T19:31:53.703Z,20.16
2023-03-21T19:34:21.928Z,20.00
2023-03-21T19:36:51.970Z,20.06
2023-03-21T19:39:22.860Z,20.00
2023-03-21T19:41:51.668Z,20.02
2023-03-21T19:44:22.670Z,20.05
2023-03-21T19:46:51.357Z,20.24
2023-03-21T19:49:22.256Z,20.20
2023-03-21T19:51:50.093Z,19.95
2023-03-21T19:54:18.262Z,19.87
2023-03-21T19:56:47.449Z,19.78
2023-03-21T19:59:16.126Z,19.70
2023-03-21T20:01:44.720Z,19.68
2023-03-21T20:04:12.914Z,19.65
2023-03-21T20:06:40.722Z,19.58
2023-03-21T20:11:57.960Z,19.52
2023-03-21T20:14:26.029Z,19.65
2023-03-21T20:16:55.363Z,19.72
2023-03-21T20:19:23.438Z,19.42
2023-03-21T20:21:57.879Z,19.39
2023-03-21T20:24:27.658Z,19.34
2023-03-21T20:26:55.837Z,19.42
2023-03-21T20:32:11.761Z,19.05
2023-03-21T20:34:40.410Z,19.16
2023-03-21T20:37:11.393Z,19.17
2023-03-21T20:39:39.997Z,19.30
2023-03-21T20:42:07.711Z,19.33
2023-03-21T20:44:55.984Z,19.21
2023-03-21T20:47:23.826Z,19.39
2023-03-21T20:49:51.653Z,19.00
2023-03-21T20:55:09.337Z,18.84
2023-03-21T20:57:38.796Z,18.81
2023-03-21T21:00:17.123Z,18.81
2023-03-21T21:02:46.114Z,18.77
2023-03-21T21:05:26.089Z,18.92
2023-03-21T21:07:56.667Z,19.16
2023-03-21T21:10:25.850Z,18.91
2023-03-21T21:12:53.561Z,18.92
2023-03-21T21:15:21.508Z,18.77
2023-03-21T21:18:06.952Z,18.71
2023-03-21T21:20:36.629Z,18.72
2023-03-21T21:23:05.225Z,18.64
2023-03-21T21:25:34.231Z,18.79
2023-03-21T21:28:02.099Z,18.80
2023-03-21T21:30:31.761Z,18.84
2023-03-21T21:33:01.097Z,18.56
2023-03-21T21:35:29.189Z,18.50
2023-03-21T21:37:57.722Z,18.57
2023-03-21T21:40:26.117Z,18.58
2023-03-21T21:42:53.823Z,18.55
2023-03-21T21:45:21.818Z,18.63
2023-03-21T21:47:49.424Z,18.71
2023-03-21T21:50:17.371Z,18.78
2023-03-21T21:52:52.756Z,18.67
2023-03-21T21:55:21.079Z,18.69
2023-03-21T21:57:51.293Z,18.58
2023-03-21T22:00:19.641Z,18.39
2023-03-21T22:02:47.473Z,18.48
2023-03-21T22:05:16.711Z,18.61
2023-03-21T22:07:44.434Z,18.42
2023-03-21T22:10:12.410Z,18.31
2023-03-21T22:12:39.994Z,18.35
2023-03-21T22:15:08.450Z,18.31
2023-03-21T22:17:36.534Z,18.35
2023-03-21T22:20:09.588Z,18.33
2023-03-21T22:22:37.446Z,18.35
2023-03-21T22:25:06.343Z,18.15
2023-03-21T22:27:34.064Z,18.24
2023-03-21T22:30:04.853Z,18.22
2023-03-21T22:32:32.717Z,18.18
2023-03-21T22:35:04.686Z,18.15
2023-03-21T22:37:33.213Z,18.10
2023-03-21T22:40:01.483Z,17.96
2023-03-21T22:42:29.166Z,18.00
2023-03-21T22:44:57.038Z,17.90
2023-03-21T22:47:24.639Z,17.91
2023-03-21T22:49:52.586Z,17.83
2023-03-21T22:52:20.535Z,17.90
2023-03-21T22:54:49.527Z,18.09
2023-03-21T22:57:18.028Z,17.93
2023-03-21T22:59:45.929Z,17.94
2023-03-21T23:02:14.068Z,17.86
2023-03-21T23:04:42.168Z,17.94
2023-03-21T23:07:10.047Z,17.87
2023-03-21T23:09:38.049Z,17.98
2023-03-21T23:12:05.668Z,17.94
2023-03-21T23:14:33.513Z,18.01
2023-03-21T23:17:03.045Z,18.04
2023-03-21T23:19:32.441Z,17.84
2023-03-21T23:21:59.996Z,17.90
2023-03-21T23:24:32.792Z,17.58
2023-03-21T23:27:00.789Z,17.50
2023-03-21T23:29:28.749Z,17.58
2023-03-21T23:31:56.587Z,17.63
2023-03-21T23:34:24.490Z,17.43
2023-03-21T23:36:52.112Z,17.60
2023-03-21T23:39:20.400Z,17.62
2023-03-21T23:41:48.003Z,17.62
2023-03-21T23:44:16.462Z,17.36
2023-03-21T23:46:44.150Z,17.50
2023-03-21T23:49:12.129Z,17.29
2023-03-21T23:51:39.664Z,17.21
2023-03-21T23:54:07.850Z,17.05
2023-03-21T23:56:36.668Z,17.18
2023-03-21T23:59:05.037Z,17.24
